Ringwood, Illinois
Current Conditions -  °F | °C
As of 1:35 PM on Friday 31 Oct 2014 (Local Time) from KBUU Reporting Station
Overcast Overcast  
Wind Chill: 23°   Ceiling: 4100
Heat Index: 36°   Visibility: 10mi
Dew Point: 21°   Wind: 29mph
Humidity: 54%   Direction: 350°N
Pressure: 30.25"   Gusts: 41mph
Location:  42.39°N, 88.3°W
Report Text: KBUU 311835Z AUTO 35025G36KT 10SM OVC041 02/M06 A3025 RMK AO2 T00221063
Loading
Personal Weather Stations






























Interactive Weather Map
Tropical Storm Tracking
New forecast layout! Learn more

10-Day Weather Forecast

Advertisements
Track Severe Weather on mobile